Algoa — ZR4311 — position and weather

sailwx.info

Track history (hours):
 
Tides and Currents Weather Stations Pressure Air Temp Water Temp Dewpoint Dewpoint Depression Visibility Wind Speed Wind Dir Waves Ship Positions

Oceanographic research ship Algoa (South Africa)

Detailed information on ship capabilities available from University of Delaware's Ocean Information Center.

Last reported at 2019-Sep-30 16:23 UTC. Time now 2019-Oct-14 10:21 UTC.
Position S 34°12' E 017°55'.
Warning: this ship's position is 13 days out of date.

Type: Other ship. MMSI: 599996424.

Date/timePositionNaut miles runAvg speedWind from/ knotsBaromVisibWave heightAir tempDewpointWater temp
2019-Sep-30 16:23S 34°12' E 017°55'7 9.7
2019-Sep-30 15:38S 34°09' E 018°03'1 9.5
2019-Sep-30 15:30S 34°08' E 018°04'5 9.4
2019-Sep-30 15:00S 34°06' E 018°09'5 9.2
2019-Sep-30 14:30S 34°03' E 018°13'4 9.0
2019-Sep-30 14:01S 34°00' E 018°17'5 9.1
2019-Sep-30 13:30S 33°56' E 018°20'4 8.0
2019-Sep-30 13:00S 33°54' E 018°23'2 3.5
2019-Sep-30 12:30S 33°54' E 018°26'0 0.0
2019-Sep-30 12:00S 33°54' E 018°26'0 0.0
2019-Sep-30 11:30S 33°54' E 018°26'0 0.0
2019-Sep-30 11:00S 33°54' E 018°26'0 0.0
2019-Sep-30 10:30S 33°54' E 018°26'0 0.0
2019-Sep-30 10:00S 33°54' E 018°26'0 0.0
2019-Sep-30 09:30S 33°54' E 018°26'0 0.0
2019-Sep-30 09:00S 33°54' E 018°26'0 0.0
2019-Sep-30 08:30S 33°54' E 018°26'0 0.0
2019-Sep-30 08:00S 33°54' E 018°26'0 0.0
2019-Sep-30 07:30S 33°54' E 018°26'0 0.0
2019-Sep-30 07:00S 33°54' E 018°26'0 0.0
2019-Sep-30 06:30S 33°54' E 018°26'0 0.0
2019-Sep-30 06:00S 33°54' E 018°26'0 0.0
2019-Sep-30 05:30S 33°54' E 018°26'0 0.0
2019-Sep-30 05:00S 33°54' E 018°26'0 0.0
2019-Sep-30 04:30S 33°54' E 018°26'0 0.0
2019-Sep-30 04:00S 33°54' E 018°26'0 0.0
2019-Sep-30 03:30S 33°54' E 018°26'0 0.0
2019-Sep-30 02:56S 33°54' E 018°26'0 0.0
2019-Sep-30 02:30S 33°54' E 018°26'0 0.0
2019-Sep-30 01:56S 33°54' E 018°26'0 0.0
2019-Sep-30 01:26S 33°54' E 018°26'0 0.0
2019-Sep-30 00:56S 33°54' E 018°26'0 0.0
2019-Sep-30 00:26S 33°54' E 018°26'0 0.0
2019-Sep-29 23:56S 33°54' E 018°26'0 0.0
2019-Sep-29 23:26S 33°54' E 018°26'0 0.0
2019-Sep-29 22:56S 33°54' E 018°26'0 0.0
2019-Sep-29 22:26S 33°54' E 018°26'0 0.0
2019-Sep-29 21:56S 33°54' E 018°26'0 0.0
2019-Sep-29 21:27S 33°54' E 018°26'0 0.0
2019-Sep-29 20:57S 33°54' E 018°26'0 0.0
2019-Sep-29 20:27S 33°54' E 018°26'0 0.0
2019-Sep-29 19:57S 33°54' E 018°26'0 0.0
2019-Sep-29 19:27S 33°54' E 018°26'0 0.0
2019-Sep-29 18:57S 33°54' E 018°26'0 0.0
2019-Sep-29 18:27S 33°54' E 018°26'0 0.0
2019-Sep-29 17:57S 33°54' E 018°26'0 0.0
2019-Sep-29 17:27S 33°54' E 018°26'0 0.0
2019-Sep-29 16:57S 33°54' E 018°26'0 0.0
2019-Sep-29 16:27S 33°54' E 018°26'0 0.0
2019-Sep-29 15:57S 33°54' E 018°26'0 0.0
2019-Sep-29 15:25S 33°54' E 018°26'0 0.0
2019-Sep-29 14:57S 33°54' E 018°26'0 0.0
2019-Sep-29 14:27S 33°54' E 018°26'0 0.0
2019-Sep-29 13:57S 33°54' E 018°26'0 0.0
2019-Sep-29 13:27S 33°54' E 018°26'0 0.0
2019-Sep-29 12:57S 33°54' E 018°26'0 0.0
2019-Sep-29 12:27S 33°54' E 018°26'0 0.0
2019-Sep-29 11:57S 33°54' E 018°26'0 0.0
2019-Sep-29 11:27S 33°54' E 018°26'0 0.0
2019-Sep-29 10:57S 33°54' E 018°26'0 0.0
2019-Sep-29 10:27S 33°54' E 018°26'0 0.0
2019-Sep-29 09:57S 33°54' E 018°26'0 0.0
2019-Sep-29 09:27S 33°54' E 018°26'0 0.0
2019-Sep-29 08:57S 33°54' E 018°26'0 0.0
2019-Sep-29 08:27S 33°54' E 018°26'0 0.0
2019-Sep-29 07:57S 33°54' E 018°26'0 0.0
2019-Sep-29 07:27S 33°54' E 018°26'0 0.0
2019-Sep-29 06:57S 33°54' E 018°26'0 0.0
2019-Sep-29 06:25S 33°54' E 018°26'0 0.0
2019-Sep-29 05:57S 33°54' E 018°26'0 0.0
2019-Sep-29 05:27S 33°54' E 018°26'0 0.0
2019-Sep-29 04:57S 33°54' E 018°26'0 0.0
2019-Sep-29 04:28S 33°54' E 018°26'0 0.0
2019-Sep-29 03:58S 33°54' E 018°26'0 0.0
2019-Sep-29 03:28S 33°54' E 018°26'0 0.0
2019-Sep-29 02:58S 33°54' E 018°26'0 0.0
2019-Sep-29 02:28S 33°54' E 018°26'0 0.0
2019-Sep-29 01:58S 33°54' E 018°26'0 0.0
2019-Sep-29 01:28S 33°54' E 018°26'0 0.0
2019-Sep-29 00:58S 33°54' E 018°26'0 0.0
2019-Sep-29 00:28S 33°54' E 018°26'0 0.0
2019-Sep-28 23:58S 33°54' E 018°26'0 0.0
2019-Sep-28 23:28S 33°54' E 018°26'0 0.0
2019-Sep-28 22:58S 33°54' E 018°26'0 0.0
2019-Sep-28 22:28S 33°54' E 018°26'0 0.0
2019-Sep-28 21:58S 33°54' E 018°26'0 0.0
2019-Sep-28 21:28S 33°54' E 018°26'0 0.0
2019-Sep-28 20:58S 33°54' E 018°26'0 0.0
2019-Sep-28 20:28S 33°54' E 018°26'0 0.0
2019-Sep-28 19:58S 33°54' E 018°26'0 0.0
2019-Sep-28 19:28S 33°54' E 018°26'0 0.0
2019-Sep-28 18:58S 33°54' E 018°26'0 0.0
2019-Sep-28 18:28S 33°54' E 018°26'0 0.0
2019-Sep-28 17:58S 33°54' E 018°26'0 0.0
2019-Sep-28 17:28S 33°54' E 018°26'0 0.0
2019-Sep-28 16:58S 33°54' E 018°26'0 0.0
2019-Sep-28 16:28S 33°54' E 018°26'0 0.0
2019-Sep-28 15:58S 33°54' E 018°26'0 0.0
2019-Sep-28 15:28S 33°54' E 018°26'0 0.0
2019-Sep-28 14:58S 33°54' E 018°26'0 0.0
2019-Sep-28 14:28S 33°54' E 018°26'0 0.0
2019-Sep-28 13:58S 33°54' E 018°26'0 0.0
2019-Sep-28 13:28S 33°54' E 018°26'0 0.0
2019-Sep-28 12:58S 33°54' E 018°26'0 0.0
2019-Sep-28 12:28S 33°54' E 018°26'0 0.0
2019-Sep-28 11:58S 33°54' E 018°26'0 0.0
2019-Sep-28 11:28S 33°54' E 018°26'0 0.0
2019-Sep-28 10:58S 33°54' E 018°26'0 0.0
2019-Sep-28 10:28S 33°54' E 018°26'0 0.0
2019-Sep-28 09:58S 33°54' E 018°26'0 0.0
2019-Sep-28 09:28S 33°54' E 018°26'0 0.0
2019-Sep-28 08:58S 33°54' E 018°26'0 0.0
2019-Sep-28 08:28S 33°54' E 018°26'0 0.0
2019-Sep-28 07:58S 33°54' E 018°26'0 0.0
2019-Sep-28 07:28S 33°54' E 018°26'0 0.0
2019-Sep-28 06:58S 33°54' E 018°26'0 0.0
2019-Sep-28 06:28S 33°54' E 018°26'0 0.0
2019-Sep-28 05:58S 33°54' E 018°26'0 0.0
2019-Sep-28 05:28S 33°54' E 018°26'0 0.0
2019-Sep-28 04:58S 33°54' E 018°26'0 0.0
2019-Sep-28 04:28S 33°54' E 018°26'0 0.0
2019-Sep-28 03:58S 33°54' E 018°26'0 0.0
2019-Sep-28 03:28S 33°54' E 018°26'0 0.0
2019-Sep-28 02:55S 33°54' E 018°26'0 0.0
2019-Sep-28 02:28S 33°54' E 018°26'0 0.0
2019-Sep-28 01:58S 33°54' E 018°26'0 0.0
2019-Sep-28 01:28S 33°54' E 018°26'0 0.0
2019-Sep-28 00:58S 33°54' E 018°26'0 0.0
2019-Sep-28 00:28S 33°54' E 018°26'0 0.0
2019-Sep-27 23:58S 33°54' E 018°26'0 0.0
2019-Sep-27 23:28S 33°54' E 018°26'0 0.0
2019-Sep-27 22:58S 33°54' E 018°26'0 0.0
2019-Sep-27 22:29S 33°54' E 018°26'0 0.0
2019-Sep-27 21:59S 33°54' E 018°26'0 0.0
2019-Sep-27 21:29S 33°54' E 018°26'0 0.0
2019-Sep-27 21:00S 33°54' E 018°26'0 0.0
2019-Sep-27 20:30S 33°54' E 018°26'0 0.0
2019-Sep-27 20:00S 33°54' E 018°26'0 0.0
2019-Sep-27 19:30S 33°54' E 018°26'0 0.0
2019-Sep-27 19:00S 33°54' E 018°26'0 0.0
2019-Sep-27 18:30S 33°54' E 018°26'0 0.0
2019-Sep-27 18:00S 33°54' E 018°26'0 0.0
2019-Sep-27 17:30S 33°54' E 018°26'0 0.0
2019-Sep-27 17:00S 33°54' E 018°26'0 0.0
2019-Sep-27 16:30S 33°54' E 018°26'0 0.0
2019-Sep-27 15:55S 33°54' E 018°26'0 0.0
2019-Sep-27 15:30S 33°54' E 018°26'0 0.0
2019-Sep-27 14:55S 33°54' E 018°26'0 0.0
2019-Sep-27 14:30S 33°54' E 018°26'0 0.0
2019-Sep-27 14:00S 33°54' E 018°26'0 0.0
2019-Sep-27 13:24S 33°54' E 018°26'0 0.0
2019-Sep-27 13:00S 33°54' E 018°26'0 0.0
2019-Sep-27 12:30S 33°54' E 018°26'0 0.0
2019-Sep-27 12:00S 33°54' E 018°26'0 0.0
2019-Sep-27 11:30S 33°54' E 018°26'0 0.0
2019-Sep-27 11:00S 33°54' E 018°26'0 0.0
2019-Sep-27 10:30S 33°54' E 018°26'0 0.0
2019-Sep-27 10:00S 33°54' E 018°26'0 0.0
2019-Sep-27 09:30S 33°54' E 018°26'0 0.0
2019-Sep-27 09:00S 33°54' E 018°26'0 0.0
2019-Sep-27 08:30S 33°54' E 018°26'0 0.0
2019-Sep-27 08:00S 33°54' E 018°26'0 0.0
2019-Sep-27 07:30S 33°54' E 018°26'0 0.0
2019-Sep-27 07:00S 33°54' E 018°26'0 0.0
2019-Sep-27 06:30S 33°54' E 018°26'0 0.0
2019-Sep-27 06:00S 33°54' E 018°26'0 0.0
2019-Sep-27 05:30S 33°54' E 018°26'0 0.0
2019-Sep-27 05:00S 33°54' E 018°26'0 0.0
2019-Sep-27 04:30S 33°54' E 018°26'0 0.0
2019-Sep-27 04:00S 33°54' E 018°26'0 0.0
2019-Sep-27 03:30S 33°54' E 018°26'0 0.0
2019-Sep-27 03:00S 33°54' E 018°26'0 0.0
2019-Sep-27 02:30S 33°54' E 018°26'0 0.0
2019-Sep-27 02:00S 33°54' E 018°26'0 0.0
2019-Sep-27 01:30S 33°54' E 018°26'0 0.0
2019-Sep-27 01:00S 33°54' E 018°26'0 0.0
2019-Sep-27 00:30S 33°54' E 018°26'0 0.0
2019-Sep-27 00:00S 33°54' E 018°26'0 0.0
2019-Sep-26 23:30S 33°54' E 018°26'0 0.0
2019-Sep-26 23:00S 33°54' E 018°26'0 0.0
2019-Sep-26 22:30S 33°54' E 018°26'0 0.0
2019-Sep-26 22:00S 33°54' E 018°26'0 0.0
2019-Sep-26 21:25S 33°54' E 018°26'0 0.0
2019-Sep-26 21:00S 33°54' E 018°26'0 0.0
2019-Sep-26 20:30S 33°54' E 018°26'0 0.0
2019-Sep-26 20:00S 33°54' E 018°26'0 0.0
2019-Sep-26 19:30S 33°54' E 018°26'0 0.0
2019-Sep-26 19:00S 33°54' E 018°26'0 0.0
2019-Sep-26 18:30S 33°54' E 018°26'0 0.0
2019-Sep-26 18:00S 33°54' E 018°26'0 0.0
2019-Sep-26 17:30S 33°54' E 018°26'0 0.0
2019-Sep-26 17:00S 33°54' E 018°26'0 0.0
2019-Sep-26 16:30S 33°54' E 018°26'0 0.0
2019-Sep-26 16:00S 33°54' E 018°26'0 0.0
2019-Sep-26 15:30S 33°54' E 018°26'0 0.0
2019-Sep-26 15:00S 33°54' E 018°26'0 0.0
2019-Sep-26 14:30S 33°54' E 018°26'0 0.0
2019-Sep-26 14:00S 33°54' E 018°26'0 0.0
2019-Sep-26 13:30S 33°54' E 018°26'0 0.0
2019-Sep-26 13:00S 33°54' E 018°26'0 0.0
2019-Sep-26 12:30S 33°54' E 018°26'0 0.0
2019-Sep-26 12:00S 33°54' E 018°26'0 0.0
2019-Sep-26 11:30S 33°54' E 018°26'0 0.0
2019-Sep-26 11:00S 33°54' E 018°26'0 0.0
2019-Sep-26 10:30S 33°54' E 018°26'0 0.0
2019-Sep-26 10:00S 33°54' E 018°26'0 0.0
2019-Sep-26 09:30S 33°54' E 018°26'0 0.0
2019-Sep-26 09:00S 33°54' E 018°26'0 0.0
2019-Sep-26 08:30S 33°54' E 018°26'0 0.0
2019-Sep-26 08:00S 33°54' E 018°26'0 0.0
2019-Sep-26 07:30S 33°54' E 018°26'0 0.0
2019-Sep-26 07:00S 33°54' E 018°26'0 0.0
2019-Sep-26 06:30S 33°54' E 018°26'0 0.0
2019-Sep-26 06:00S 33°54' E 018°26'0 0.0
2019-Sep-26 05:30S 33°54' E 018°26'0 0.0
2019-Sep-26 05:00S 33°54' E 018°26'0 0.0
2019-Sep-26 04:30S 33°54' E 018°26'0 0.0
2019-Sep-26 04:00S 33°54' E 018°26'0 0.0
2019-Sep-26 03:30S 33°54' E 018°26'0 0.0
2019-Sep-26 03:00S 33°54' E 018°26'0 0.0
2019-Sep-26 02:30S 33°54' E 018°26'0 0.0
2019-Sep-26 01:30S 33°54' E 018°26'0 0.0
2019-Sep-26 01:00S 33°54' E 018°26'0 0.0
2019-Sep-26 00:30S 33°54' E 018°26'0 0.0
2019-Sep-26 00:00S 33°54' E 018°26'0 0.0
2019-Sep-25 23:30S 33°54' E 018°26'0 0.0
2019-Sep-25 23:00S 33°54' E 018°26'0 0.0
2019-Sep-25 22:30S 33°54' E 018°26'0 0.0
2019-Sep-25 22:00S 33°54' E 018°26'0 0.0
2019-Sep-25 21:30S 33°54' E 018°26'0 0.0
2019-Sep-25 21:00S 33°54' E 018°26'0 0.0
2019-Sep-25 20:30S 33°54' E 018°26'0 0.0
2019-Sep-25 20:00S 33°54' E 018°26'0 0.0
2019-Sep-25 19:30S 33°54' E 018°26'0 0.0
2019-Sep-25 19:00S 33°54' E 018°26'0 0.0
2019-Sep-25 18:30S 33°54' E 018°26'0 0.0
2019-Sep-25 18:00S 33°54' E 018°26'0 0.0
2019-Sep-25 17:30S 33°54' E 018°26'0 0.0
2019-Sep-25 17:00S 33°54' E 018°26'0 0.0
2019-Sep-25 16:30S 33°54' E 018°26'0 0.0
2019-Sep-25 16:00S 33°54' E 018°26'0 0.0
2019-Sep-25 15:30S 33°54' E 018°26'0 0.0
2019-Sep-25 15:00S 33°54' E 018°26'0 0.0
2019-Sep-25 14:30S 33°54' E 018°26'0 0.0
2019-Sep-25 14:00S 33°54' E 018°26'0 0.0
2019-Sep-25 13:30S 33°54' E 018°26'0 0.0
2019-Sep-25 13:00S 33°54' E 018°26'0 0.0
2019-Sep-25 12:30S 33°54' E 018°26'0 0.0
2019-Sep-25 12:00S 33°54' E 018°26'0 0.0
2019-Sep-25 11:30S 33°54' E 018°26'0 0.0
2019-Sep-25 11:00S 33°54' E 018°26'0 0.0
2019-Sep-25 10:30S 33°54' E 018°26'0 0.0
2019-Sep-25 10:00S 33°54' E 018°26'0 0.0
2019-Sep-25 09:30S 33°54' E 018°26'0 0.0
2019-Sep-25 09:00S 33°54' E 018°26'0 0.0
2019-Sep-25 08:30S 33°54' E 018°26'0 0.0
2019-Sep-25 07:56S 33°54' E 018°26'0 0.0
2019-Sep-25 07:30S 33°54' E 018°26'0 0.0
2019-Sep-25 07:00S 33°54' E 018°26'0 0.0
2019-Sep-25 06:30S 33°54' E 018°26'0 0.0
2019-Sep-25 06:00S 33°54' E 018°26'0 0.0
2019-Sep-25 05:30S 33°54' E 018°26'0 0.0
2019-Sep-25 04:56S 33°54' E 018°26'0 0.0
2019-Sep-25 04:30S 33°54' E 018°26'0 0.0
2019-Sep-25 04:00S 33°54' E 018°26'0 0.0
2019-Sep-25 03:30S 33°54' E 018°26'0 0.0
2019-Sep-25 03:00S 33°54' E 018°26'0 0.0
2019-Sep-25 02:30S 33°54' E 018°26'0 0.0
2019-Sep-25 02:00S 33°54' E 018°26'0 0.0
2019-Sep-25 01:30S 33°54' E 018°26'0 0.0
2019-Sep-25 01:00S 33°54' E 018°26'0 0.0
2019-Sep-25 00:30S 33°54' E 018°26'0 0.0
2019-Sep-25 00:00S 33°54' E 018°26'0 0.0
2019-Sep-24 23:28S 33°54' E 018°26'0 0.0
2019-Sep-24 22:58S 33°54' E 018°26'0 0.0
2019-Sep-24 22:28S 33°54' E 018°26'0 0.0
2019-Sep-24 21:58S 33°54' E 018°26'0 0.0
2019-Sep-24 21:28S 33°54' E 018°26'0 0.0
2019-Sep-24 20:58S 33°54' E 018°26'0 0.0
2019-Sep-24 20:28S 33°54' E 018°26'0 0.0
2019-Sep-24 19:58S 33°54' E 018°26'0 0.0
2019-Sep-24 19:28S 33°54' E 018°26'0 0.0
2019-Sep-24 18:58S 33°54' E 018°26'0 0.0
2019-Sep-24 18:25S 33°54' E 018°26'0 0.0
2019-Sep-24 17:58S 33°54' E 018°26'0 0.0
2019-Sep-24 17:28S 33°54' E 018°26'0 0.0
2019-Sep-24 16:58S 33°54' E 018°26'0 0.0
2019-Sep-24 16:28S 33°54' E 018°26'0 0.0
2019-Sep-24 15:58S 33°54' E 018°26'0 0.0
2019-Sep-24 15:28S 33°54' E 018°26'0 0.0
2019-Sep-24 14:58S 33°54' E 018°26'0 0.0
2019-Sep-24 14:28S 33°54' E 018°26'0 0.0
2019-Sep-24 13:58S 33°54' E 018°26'0 0.0
2019-Sep-24 13:28S 33°54' E 018°26'0 0.0
2019-Sep-24 12:58S 33°54' E 018°26'0 0.0
2019-Sep-24 12:28S 33°54' E 018°26'0 0.0
2019-Sep-24 11:58S 33°54' E 018°26'0 0.0
2019-Sep-24 11:25S 33°54' E 018°26'0 0.0
2019-Sep-24 10:58S 33°54' E 018°26'0 0.0
2019-Sep-24 10:28S 33°54' E 018°26'0 0.0
2019-Sep-24 09:58S 33°54' E 018°26'0 0.0
2019-Sep-24 09:28S 33°54' E 018°26'0 0.0
2019-Sep-24 08:58S 33°54' E 018°26'0 0.0
2019-Sep-24 08:28S 33°54' E 018°26'0 0.0
2019-Sep-24 07:58S 33°54' E 018°26'0 0.0
2019-Sep-24 07:28S 33°54' E 018°26'0 0.0
2019-Sep-24 06:58S 33°54' E 018°26'0 0.0
2019-Sep-24 06:28S 33°54' E 018°26'0 0.0
2019-Sep-24 05:58S 33°54' E 018°26'0 0.0
2019-Sep-24 05:28S 33°54' E 018°26'0 0.0
2019-Sep-24 04:58S 33°54' E 018°26'0 0.0
2019-Sep-24 04:28S 33°54' E 018°26'0 0.0
2019-Sep-24 03:58S 33°54' E 018°26'0 0.0
2019-Sep-24 03:28S 33°54' E 018°26'0 0.0
2019-Sep-24 02:58S 33°54' E 018°26'0 0.0
2019-Sep-24 02:28S 33°54' E 018°26'0 0.0
2019-Sep-24 01:58S 33°54' E 018°26'0 0.0
2019-Sep-24 01:28S 33°54' E 018°26'0 0.0
2019-Sep-24 00:58S 33°54' E 018°26'0 0.0
2019-Sep-24 00:28S 33°54' E 018°26'0 0.0
2019-Sep-23 23:58S 33°54' E 018°26'0 0.0
2019-Sep-23 23:28S 33°54' E 018°26'0 0.0
2019-Sep-23 22:58S 33°54' E 018°26'0 0.0
2019-Sep-23 22:28S 33°54' E 018°26'0 0.0
2019-Sep-23 21:58S 33°54' E 018°26'0 0.0
2019-Sep-23 21:28S 33°54' E 018°26'0 0.0
2019-Sep-23 20:58S 33°54' E 018°26'0 0.0
2019-Sep-23 20:28S 33°54' E 018°26'0 0.0
2019-Sep-23 19:58S 33°54' E 018°26'0 0.0
2019-Sep-23 19:28S 33°54' E 018°26'0 0.0
2019-Sep-23 18:55S 33°54' E 018°26'0 0.0
2019-Sep-23 18:28S 33°54' E 018°26'0 0.0
2019-Sep-23 17:58S 33°54' E 018°26'0 0.0
2019-Sep-23 17:28S 33°54' E 018°26'0 0.0
2019-Sep-23 16:58S 33°54' E 018°26'0 0.0
2019-Sep-23 16:28S 33°54' E 018°26'0 0.0
2019-Sep-23 15:58S 33°54' E 018°26'0 0.0
2019-Sep-23 15:28S 33°54' E 018°26'0 0.0
2019-Sep-23 14:58S 33°54' E 018°26'0 0.0
2019-Sep-23 14:28S 33°54' E 018°26'0 0.0
2019-Sep-23 13:58S 33°54' E 018°26'0 0.0
2019-Sep-23 13:28S 33°54' E 018°26'0 0.0
2019-Sep-23 12:58S 33°54' E 018°26'0 0.0
2019-Sep-23 12:28S 33°54' E 018°26'0 0.0
2019-Sep-23 11:58S 33°54' E 018°26'0 0.0
2019-Sep-23 11:28S 33°54' E 018°26'0 0.0
2019-Sep-23 10:58S 33°54' E 018°26'0 0.0
2019-Sep-23 10:28S 33°54' E 018°26'0 0.0
2019-Sep-23 09:58S 33°54' E 018°26'0 0.0
2019-Sep-23 09:28S 33°54' E 018°26'0 0.0
2019-Sep-23 08:58S 33°54' E 018°26'0 0.0
2019-Sep-23 08:28S 33°54' E 018°26'0 0.0
2019-Sep-23 07:58S 33°54' E 018°26'0 0.0
2019-Sep-23 07:28S 33°54' E 018°26'0 0.0
2019-Sep-23 06:58S 33°54' E 018°26'0 0.0
2019-Sep-23 06:28S 33°54' E 018°26'0 0.0
2019-Sep-23 05:58S 33°54' E 018°26'0 0.0
2019-Sep-23 05:28S 33°54' E 018°26'0 0.0
2019-Sep-23 04:58S 33°54' E 018°26'0 0.0
2019-Sep-23 04:28S 33°54' E 018°26'0 0.0
2019-Sep-23 03:58S 33°54' E 018°26'0 0.0
2019-Sep-23 03:28S 33°54' E 018°26'0 0.0
2019-Sep-23 02:58S 33°54' E 018°26'0 0.0
2019-Sep-23 01:58S 33°54' E 018°26'0 0.0
2019-Sep-23 01:28S 33°54' E 018°26'0 0.0
2019-Sep-23 00:58S 33°54' E 018°26'0 0.0
2019-Sep-23 00:28S 33°54' E 018°26'0 0.0
2019-Sep-22 23:58S 33°54' E 018°26'0 0.0
2019-Sep-22 23:28S 33°54' E 018°26'0 0.0
2019-Sep-22 22:58S 33°54' E 018°26'0 0.0
2019-Sep-22 22:28S 33°54' E 018°26'0 0.0
2019-Sep-22 21:58S 33°54' E 018°26'0 0.0
2019-Sep-22 21:28S 33°54' E 018°26'0 0.0
2019-Sep-22 21:00S 33°54' E 018°26'2 3.1
2019-Sep-22 20:30S 33°53' E 018°26'4 8.3
2019-Sep-22 20:00S 33°49' E 018°25'4 8.2
2019-Sep-22 19:30S 33°45' E 018°23'4 8.1
2019-Sep-22 18:59S 33°42' E 018°20'5 7.8
2019-Sep-22 18:23S 33°38' E 018°16'  
Track history (hours):
 
Tides and Currents Weather Stations Pressure Air Temp Water Temp Dewpoint Dewpoint Depression Visibility Wind Speed Wind Dir Waves Ship Positions

Oceanographic research ship Algoa (South Africa)

Detailed information on ship capabilities available from University of Delaware's Ocean Information Center.

Last reported at 2019-Sep-30 16:23 UTC. Time now 2019-Oct-14 10:21 UTC.
Position S 34°12' E 017°55'.
Warning: this ship's position is 13 days out of date.

Type: Other ship. MMSI: 599996424.

Date/timePositionNaut miles runAvg speedWind from/ knotsBaromVisibWave heightAir tempDewpointWater temp
2019-Sep-30 16:23S 34°12' E 017°55'7 9.7
2019-Sep-30 15:38S 34°09' E 018°03'1 9.5
2019-Sep-30 15:30S 34°08' E 018°04'5 9.4
2019-Sep-30 15:00S 34°06' E 018°09'5 9.2
2019-Sep-30 14:30S 34°03' E 018°13'4 9.0
2019-Sep-30 14:01S 34°00' E 018°17'5 9.1
2019-Sep-30 13:30S 33°56' E 018°20'4 8.0
2019-Sep-30 13:00S 33°54' E 018°23'2 3.5
2019-Sep-30 12:30S 33°54' E 018°26'0 0.0
2019-Sep-30 12:00S 33°54' E 018°26'0 0.0
2019-Sep-30 11:30S 33°54' E 018°26'0 0.0
2019-Sep-30 11:00S 33°54' E 018°26'0 0.0
2019-Sep-30 10:30S 33°54' E 018°26'0 0.0
2019-Sep-30 10:00S 33°54' E 018°26'0 0.0
2019-Sep-30 09:30S 33°54' E 018°26'0 0.0
2019-Sep-30 09:00S 33°54' E 018°26'0 0.0
2019-Sep-30 08:30S 33°54' E 018°26'0 0.0
2019-Sep-30 08:00S 33°54' E 018°26'0 0.0
2019-Sep-30 07:30S 33°54' E 018°26'0 0.0
2019-Sep-30 07:00S 33°54' E 018°26'0 0.0
2019-Sep-30 06:30S 33°54' E 018°26'0 0.0
2019-Sep-30 06:00S 33°54' E 018°26'0 0.0
2019-Sep-30 05:30S 33°54' E 018°26'0 0.0
2019-Sep-30 05:00S 33°54' E 018°26'0 0.0
2019-Sep-30 04:30S 33°54' E 018°26'0 0.0
2019-Sep-30 04:00S 33°54' E 018°26'0 0.0
2019-Sep-30 03:30S 33°54' E 018°26'0 0.0
2019-Sep-30 02:56S 33°54' E 018°26'0 0.0
2019-Sep-30 02:30S 33°54' E 018°26'0 0.0
2019-Sep-30 01:56S 33°54' E 018°26'0 0.0
2019-Sep-30 01:26S 33°54' E 018°26'0 0.0
2019-Sep-30 00:56S 33°54' E 018°26'0 0.0
2019-Sep-30 00:26S 33°54' E 018°26'0 0.0
2019-Sep-29 23:56S 33°54' E 018°26'0 0.0
2019-Sep-29 23:26S 33°54' E 018°26'0 0.0
2019-Sep-29 22:56S 33°54' E 018°26'0 0.0
2019-Sep-29 22:26S 33°54' E 018°26'0 0.0
2019-Sep-29 21:56S 33°54' E 018°26'0 0.0
2019-Sep-29 21:27S 33°54' E 018°26'0 0.0
2019-Sep-29 20:57S 33°54' E 018°26'0 0.0
2019-Sep-29 20:27S 33°54' E 018°26'0 0.0
2019-Sep-29 19:57S 33°54' E 018°26'0 0.0
2019-Sep-29 19:27S 33°54' E 018°26'0 0.0
2019-Sep-29 18:57S 33°54' E 018°26'0 0.0
2019-Sep-29 18:27S 33°54' E 018°26'0 0.0
2019-Sep-29 17:57S 33°54' E 018°26'0 0.0
2019-Sep-29 17:27S 33°54' E 018°26'0 0.0
2019-Sep-29 16:57S 33°54' E 018°26'0 0.0
2019-Sep-29 16:27S 33°54' E 018°26'0 0.0
2019-Sep-29 15:57S 33°54' E 018°26'0 0.0
2019-Sep-29 15:25S 33°54' E 018°26'0 0.0
2019-Sep-29 14:57S 33°54' E 018°26'0 0.0
2019-Sep-29 14:27S 33°54' E 018°26'0 0.0
2019-Sep-29 13:57S 33°54' E 018°26'0 0.0
2019-Sep-29 13:27S 33°54' E 018°26'0 0.0
2019-Sep-29 12:57S 33°54' E 018°26'0 0.0
2019-Sep-29 12:27S 33°54' E 018°26'0 0.0
2019-Sep-29 11:57S 33°54' E 018°26'0 0.0
2019-Sep-29 11:27S 33°54' E 018°26'0 0.0
2019-Sep-29 10:57S 33°54' E 018°26'0 0.0
2019-Sep-29 10:27S 33°54' E 018°26'0 0.0
2019-Sep-29 09:57S 33°54' E 018°26'0 0.0
2019-Sep-29 09:27S 33°54' E 018°26'0 0.0
2019-Sep-29 08:57S 33°54' E 018°26'0 0.0
2019-Sep-29 08:27S 33°54' E 018°26'0 0.0
2019-Sep-29 07:57S 33°54' E 018°26'0 0.0
2019-Sep-29 07:27S 33°54' E 018°26'0 0.0
2019-Sep-29 06:57S 33°54' E 018°26'0 0.0
2019-Sep-29 06:25S 33°54' E 018°26'0 0.0
2019-Sep-29 05:57S 33°54' E 018°26'0 0.0
2019-Sep-29 05:27S 33°54' E 018°26'0 0.0
2019-Sep-29 04:57S 33°54' E 018°26'0 0.0
2019-Sep-29 04:28S 33°54' E 018°26'0 0.0
2019-Sep-29 03:58S 33°54' E 018°26'0 0.0
2019-Sep-29 03:28S 33°54' E 018°26'0 0.0
2019-Sep-29 02:58S 33°54' E 018°26'0 0.0
2019-Sep-29 02:28S 33°54' E 018°26'0 0.0
2019-Sep-29 01:58S 33°54' E 018°26'0 0.0
2019-Sep-29 01:28S 33°54' E 018°26'0 0.0
2019-Sep-29 00:58S 33°54' E 018°26'0 0.0
2019-Sep-29 00:28S 33°54' E 018°26'0 0.0
2019-Sep-28 23:58S 33°54' E 018°26'0 0.0
2019-Sep-28 23:28S 33°54' E 018°26'0 0.0
2019-Sep-28 22:58S 33°54' E 018°26'0 0.0
2019-Sep-28 22:28S 33°54' E 018°26'0 0.0
2019-Sep-28 21:58S 33°54' E 018°26'0 0.0
2019-Sep-28 21:28S 33°54' E 018°26'0 0.0
2019-Sep-28 20:58S 33°54' E 018°26'0 0.0
2019-Sep-28 20:28S 33°54' E 018°26'0 0.0
2019-Sep-28 19:58S 33°54' E 018°26'0 0.0
2019-Sep-28 19:28S 33°54' E 018°26'0 0.0
2019-Sep-28 18:58S 33°54' E 018°26'0 0.0
2019-Sep-28 18:28S 33°54' E 018°26'0 0.0
2019-Sep-28 17:58S 33°54' E 018°26'0 0.0
2019-Sep-28 17:28S 33°54' E 018°26'0 0.0
2019-Sep-28 16:58S 33°54' E 018°26'0 0.0
2019-Sep-28 16:28S 33°54' E 018°26'0 0.0
2019-Sep-28 15:58S 33°54' E 018°26'0 0.0
2019-Sep-28 15:28S 33°54' E 018°26'0 0.0
2019-Sep-28 14:58S 33°54' E 018°26'0 0.0
2019-Sep-28 14:28S 33°54' E 018°26'0 0.0
2019-Sep-28 13:58S 33°54' E 018°26'0 0.0
2019-Sep-28 13:28S 33°54' E 018°26'0 0.0
2019-Sep-28 12:58S 33°54' E 018°26'0 0.0
2019-Sep-28 12:28S 33°54' E 018°26'0 0.0
2019-Sep-28 11:58S 33°54' E 018°26'0 0.0
2019-Sep-28 11:28S 33°54' E 018°26'0 0.0
2019-Sep-28 10:58S 33°54' E 018°26'0 0.0
2019-Sep-28 10:28S 33°54' E 018°26'0 0.0
2019-Sep-28 09:58S 33°54' E 018°26'0 0.0
2019-Sep-28 09:28S 33°54' E 018°26'0 0.0
2019-Sep-28 08:58S 33°54' E 018°26'0 0.0
2019-Sep-28 08:28S 33°54' E 018°26'0 0.0
2019-Sep-28 07:58S 33°54' E 018°26'0 0.0
2019-Sep-28 07:28S 33°54' E 018°26'0 0.0
2019-Sep-28 06:58S 33°54' E 018°26'0 0.0
2019-Sep-28 06:28S 33°54' E 018°26'0 0.0
2019-Sep-28 05:58S 33°54' E 018°26'0 0.0
2019-Sep-28 05:28S 33°54' E 018°26'0 0.0
2019-Sep-28 04:58S 33°54' E 018°26'0 0.0
2019-Sep-28 04:28S 33°54' E 018°26'0 0.0
2019-Sep-28 03:58S 33°54' E 018°26'0 0.0
2019-Sep-28 03:28S 33°54' E 018°26'0 0.0
2019-Sep-28 02:55S 33°54' E 018°26'0 0.0
2019-Sep-28 02:28S 33°54' E 018°26'0 0.0
2019-Sep-28 01:58S 33°54' E 018°26'0 0.0
2019-Sep-28 01:28S 33°54' E 018°26'0 0.0
2019-Sep-28 00:58S 33°54' E 018°26'0 0.0
2019-Sep-28 00:28S 33°54' E 018°26'0 0.0
2019-Sep-27 23:58S 33°54' E 018°26'0 0.0
2019-Sep-27 23:28S 33°54' E 018°26'0 0.0
2019-Sep-27 22:58S 33°54' E 018°26'0 0.0
2019-Sep-27 22:29S 33°54' E 018°26'0 0.0
2019-Sep-27 21:59S 33°54' E 018°26'0 0.0
2019-Sep-27 21:29S 33°54' E 018°26'0 0.0
2019-Sep-27 21:00S 33°54' E 018°26'0 0.0
2019-Sep-27 20:30S 33°54' E 018°26'0 0.0
2019-Sep-27 20:00S 33°54' E 018°26'0 0.0
2019-Sep-27 19:30S 33°54' E 018°26'0 0.0
2019-Sep-27 19:00S 33°54' E 018°26'0 0.0
2019-Sep-27 18:30S 33°54' E 018°26'0 0.0
2019-Sep-27 18:00S 33°54' E 018°26'0 0.0
2019-Sep-27 17:30S 33°54' E 018°26'0 0.0
2019-Sep-27 17:00S 33°54' E 018°26'0 0.0
2019-Sep-27 16:30S 33°54' E 018°26'0 0.0
2019-Sep-27 15:55S 33°54' E 018°26'0 0.0
2019-Sep-27 15:30S 33°54' E 018°26'0 0.0
2019-Sep-27 14:55S 33°54' E 018°26'0 0.0
2019-Sep-27 14:30S 33°54' E 018°26'0 0.0
2019-Sep-27 14:00S 33°54' E 018°26'0 0.0
2019-Sep-27 13:24S 33°54' E 018°26'0 0.0
2019-Sep-27 13:00S 33°54' E 018°26'0 0.0
2019-Sep-27 12:30S 33°54' E 018°26'0 0.0
2019-Sep-27 12:00S 33°54' E 018°26'0 0.0
2019-Sep-27 11:30S 33°54' E 018°26'0 0.0
2019-Sep-27 11:00S 33°54' E 018°26'0 0.0
2019-Sep-27 10:30S 33°54' E 018°26'0 0.0
2019-Sep-27 10:00S 33°54' E 018°26'0 0.0
2019-Sep-27 09:30S 33°54' E 018°26'0 0.0
2019-Sep-27 09:00S 33°54' E 018°26'0 0.0
2019-Sep-27 08:30S 33°54' E 018°26'0 0.0
2019-Sep-27 08:00S 33°54' E 018°26'0 0.0
2019-Sep-27 07:30S 33°54' E 018°26'0 0.0
2019-Sep-27 07:00S 33°54' E 018°26'0 0.0
2019-Sep-27 06:30S 33°54' E 018°26'0 0.0
2019-Sep-27 06:00S 33°54' E 018°26'0 0.0
2019-Sep-27 05:30S 33°54' E 018°26'0 0.0
2019-Sep-27 05:00S 33°54' E 018°26'0 0.0
2019-Sep-27 04:30S 33°54' E 018°26'0 0.0
2019-Sep-27 04:00S 33°54' E 018°26'0 0.0
2019-Sep-27 03:30S 33°54' E 018°26'0 0.0
2019-Sep-27 03:00S 33°54' E 018°26'0 0.0
2019-Sep-27 02:30S 33°54' E 018°26'0 0.0
2019-Sep-27 02:00S 33°54' E 018°26'0 0.0
2019-Sep-27 01:30S 33°54' E 018°26'0 0.0
2019-Sep-27 01:00S 33°54' E 018°26'0 0.0
2019-Sep-27 00:30S 33°54' E 018°26'0 0.0
2019-Sep-27 00:00S 33°54' E 018°26'0 0.0
2019-Sep-26 23:30S 33°54' E 018°26'0 0.0
2019-Sep-26 23:00S 33°54' E 018°26'0 0.0
2019-Sep-26 22:30S 33°54' E 018°26'0 0.0
2019-Sep-26 22:00S 33°54' E 018°26'0 0.0
2019-Sep-26 21:25S 33°54' E 018°26'0 0.0
2019-Sep-26 21:00S 33°54' E 018°26'0 0.0
2019-Sep-26 20:30S 33°54' E 018°26'0 0.0
2019-Sep-26 20:00S 33°54' E 018°26'0 0.0
2019-Sep-26 19:30S 33°54' E 018°26'0 0.0
2019-Sep-26 19:00S 33°54' E 018°26'0 0.0
2019-Sep-26 18:30S 33°54' E 018°26'0 0.0
2019-Sep-26 18:00S 33°54' E 018°26'0 0.0
2019-Sep-26 17:30S 33°54' E 018°26'0 0.0
2019-Sep-26 17:00S 33°54' E 018°26'0 0.0
2019-Sep-26 16:30S 33°54' E 018°26'0 0.0
2019-Sep-26 16:00S 33°54' E 018°26'0 0.0
2019-Sep-26 15:30S 33°54' E 018°26'0 0.0
2019-Sep-26 15:00S 33°54' E 018°26'0 0.0
2019-Sep-26 14:30S 33°54' E 018°26'0 0.0
2019-Sep-26 14:00S 33°54' E 018°26'0 0.0
2019-Sep-26 13:30S 33°54' E 018°26'0 0.0
2019-Sep-26 13:00S 33°54' E 018°26'0 0.0
2019-Sep-26 12:30S 33°54' E 018°26'0 0.0
2019-Sep-26 12:00S 33°54' E 018°26'0 0.0
2019-Sep-26 11:30S 33°54' E 018°26'0 0.0
2019-Sep-26 11:00S 33°54' E 018°26'0 0.0
2019-Sep-26 10:30S 33°54' E 018°26'0 0.0
2019-Sep-26 10:00S 33°54' E 018°26'0 0.0
2019-Sep-26 09:30S 33°54' E 018°26'0 0.0
2019-Sep-26 09:00S 33°54' E 018°26'0 0.0
2019-Sep-26 08:30S 33°54' E 018°26'0 0.0
2019-Sep-26 08:00S 33°54' E 018°26'0 0.0
2019-Sep-26 07:30S 33°54' E 018°26'0 0.0
2019-Sep-26 07:00S 33°54' E 018°26'0 0.0
2019-Sep-26 06:30S 33°54' E 018°26'0 0.0
2019-Sep-26 06:00S 33°54' E 018°26'0 0.0
2019-Sep-26 05:30S 33°54' E 018°26'0 0.0
2019-Sep-26 05:00S 33°54' E 018°26'0 0.0
2019-Sep-26 04:30S 33°54' E 018°26'0 0.0
2019-Sep-26 04:00S 33°54' E 018°26'0 0.0
2019-Sep-26 03:30S 33°54' E 018°26'0 0.0
2019-Sep-26 03:00S 33°54' E 018°26'0 0.0
2019-Sep-26 02:30S 33°54' E 018°26'0 0.0
2019-Sep-26 01:30S 33°54' E 018°26'0 0.0
2019-Sep-26 01:00S 33°54' E 018°26'0 0.0
2019-Sep-26 00:30S 33°54' E 018°26'0 0.0
2019-Sep-26 00:00S 33°54' E 018°26'0 0.0
2019-Sep-25 23:30S 33°54' E 018°26'0 0.0
2019-Sep-25 23:00S 33°54' E 018°26'0 0.0
2019-Sep-25 22:30S 33°54' E 018°26'0 0.0
2019-Sep-25 22:00S 33°54' E 018°26'0 0.0
2019-Sep-25 21:30S 33°54' E 018°26'0 0.0
2019-Sep-25 21:00S 33°54' E 018°26'0 0.0
2019-Sep-25 20:30S 33°54' E 018°26'0 0.0
2019-Sep-25 20:00S 33°54' E 018°26'0 0.0
2019-Sep-25 19:30S 33°54' E 018°26'0 0.0
2019-Sep-25 19:00S 33°54' E 018°26'0 0.0
2019-Sep-25 18:30S 33°54' E 018°26'0 0.0
2019-Sep-25 18:00S 33°54' E 018°26'0 0.0
2019-Sep-25 17:30S 33°54' E 018°26'0 0.0
2019-Sep-25 17:00S 33°54' E 018°26'0 0.0
2019-Sep-25 16:30S 33°54' E 018°26'0 0.0
2019-Sep-25 16:00S 33°54' E 018°26'0 0.0
2019-Sep-25 15:30S 33°54' E 018°26'0 0.0
2019-Sep-25 15:00S 33°54' E 018°26'0 0.0
2019-Sep-25 14:30S 33°54' E 018°26'0 0.0
2019-Sep-25 14:00S 33°54' E 018°26'0 0.0
2019-Sep-25 13:30S 33°54' E 018°26'0 0.0
2019-Sep-25 13:00S 33°54' E 018°26'0 0.0
2019-Sep-25 12:30S 33°54' E 018°26'0 0.0
2019-Sep-25 12:00S 33°54' E 018°26'0 0.0
2019-Sep-25 11:30S 33°54' E 018°26'0 0.0
2019-Sep-25 11:00S 33°54' E 018°26'0 0.0
2019-Sep-25 10:30S 33°54' E 018°26'0 0.0
2019-Sep-25 10:00S 33°54' E 018°26'0 0.0
2019-Sep-25 09:30S 33°54' E 018°26'0 0.0
2019-Sep-25 09:00S 33°54' E 018°26'0 0.0
2019-Sep-25 08:30S 33°54' E 018°26'0 0.0
2019-Sep-25 07:56S 33°54' E 018°26'0 0.0
2019-Sep-25 07:30S 33°54' E 018°26'0 0.0
2019-Sep-25 07:00S 33°54' E 018°26'0 0.0
2019-Sep-25 06:30S 33°54' E 018°26'0 0.0
2019-Sep-25 06:00S 33°54' E 018°26'0 0.0
2019-Sep-25 05:30S 33°54' E 018°26'0 0.0
2019-Sep-25 04:56S 33°54' E 018°26'0 0.0
2019-Sep-25 04:30S 33°54' E 018°26'0 0.0
2019-Sep-25 04:00S 33°54' E 018°26'0 0.0
2019-Sep-25 03:30S 33°54' E 018°26'0 0.0
2019-Sep-25 03:00S 33°54' E 018°26'0 0.0
2019-Sep-25 02:30S 33°54' E 018°26'0 0.0
2019-Sep-25 02:00S 33°54' E 018°26'0 0.0
2019-Sep-25 01:30S 33°54' E 018°26'0 0.0
2019-Sep-25 01:00S 33°54' E 018°26'0 0.0
2019-Sep-25 00:30S 33°54' E 018°26'0 0.0
2019-Sep-25 00:00S 33°54' E 018°26'0 0.0
2019-Sep-24 23:28S 33°54' E 018°26'0 0.0
2019-Sep-24 22:58S 33°54' E 018°26'0 0.0
2019-Sep-24 22:28S 33°54' E 018°26'0 0.0
2019-Sep-24 21:58S 33°54' E 018°26'0 0.0
2019-Sep-24 21:28S 33°54' E 018°26'0 0.0
2019-Sep-24 20:58S 33°54' E 018°26'0 0.0
2019-Sep-24 20:28S 33°54' E 018°26'0 0.0
2019-Sep-24 19:58S 33°54' E 018°26'0 0.0
2019-Sep-24 19:28S 33°54' E 018°26'0 0.0
2019-Sep-24 18:58S 33°54' E 018°26'0 0.0
2019-Sep-24 18:25S 33°54' E 018°26'0 0.0
2019-Sep-24 17:58S 33°54' E 018°26'0 0.0
2019-Sep-24 17:28S 33°54' E 018°26'0 0.0
2019-Sep-24 16:58S 33°54' E 018°26'0 0.0
2019-Sep-24 16:28S 33°54' E 018°26'0 0.0
2019-Sep-24 15:58S 33°54' E 018°26'0 0.0
2019-Sep-24 15:28S 33°54' E 018°26'0 0.0
2019-Sep-24 14:58S 33°54' E 018°26'0 0.0
2019-Sep-24 14:28S 33°54' E 018°26'0 0.0
2019-Sep-24 13:58S 33°54' E 018°26'0 0.0
2019-Sep-24 13:28S 33°54' E 018°26'0 0.0
2019-Sep-24 12:58S 33°54' E 018°26'0 0.0
2019-Sep-24 12:28S 33°54' E 018°26'0 0.0
2019-Sep-24 11:58S 33°54' E 018°26'0 0.0
2019-Sep-24 11:25S 33°54' E 018°26'0 0.0
2019-Sep-24 10:58S 33°54' E 018°26'0 0.0
2019-Sep-24 10:28S 33°54' E 018°26'0 0.0
2019-Sep-24 09:58S 33°54' E 018°26'0 0.0
2019-Sep-24 09:28S 33°54' E 018°26'0 0.0
2019-Sep-24 08:58S 33°54' E 018°26'0 0.0
2019-Sep-24 08:28S 33°54' E 018°26'0 0.0
2019-Sep-24 07:58S 33°54' E 018°26'0 0.0
2019-Sep-24 07:28S 33°54' E 018°26'0 0.0
2019-Sep-24 06:58S 33°54' E 018°26'0 0.0
2019-Sep-24 06:28S 33°54' E 018°26'0 0.0
2019-Sep-24 05:58S 33°54' E 018°26'0 0.0
2019-Sep-24 05:28S 33°54' E 018°26'0 0.0
2019-Sep-24 04:58S 33°54' E 018°26'0 0.0
2019-Sep-24 04:28S 33°54' E 018°26'0 0.0
2019-Sep-24 03:58S 33°54' E 018°26'0 0.0
2019-Sep-24 03:28S 33°54' E 018°26'0 0.0
2019-Sep-24 02:58S 33°54' E 018°26'0 0.0
2019-Sep-24 02:28S 33°54' E 018°26'0 0.0
2019-Sep-24 01:58S 33°54' E 018°26'0 0.0
2019-Sep-24 01:28S 33°54' E 018°26'0 0.0
2019-Sep-24 00:58S 33°54' E 018°26'0 0.0
2019-Sep-24 00:28S 33°54' E 018°26'0 0.0
2019-Sep-23 23:58S 33°54' E 018°26'0 0.0
2019-Sep-23 23:28S 33°54' E 018°26'0 0.0
2019-Sep-23 22:58S 33°54' E 018°26'0 0.0
2019-Sep-23 22:28S 33°54' E 018°26'0 0.0
2019-Sep-23 21:58S 33°54' E 018°26'0 0.0
2019-Sep-23 21:28S 33°54' E 018°26'0 0.0
2019-Sep-23 20:58S 33°54' E 018°26'0 0.0
2019-Sep-23 20:28S 33°54' E 018°26'0 0.0
2019-Sep-23 19:58S 33°54' E 018°26'0 0.0
2019-Sep-23 19:28S 33°54' E 018°26'0 0.0
2019-Sep-23 18:55S 33°54' E 018°26'0 0.0
2019-Sep-23 18:28S 33°54' E 018°26'0 0.0
2019-Sep-23 17:58S 33°54' E 018°26'0 0.0
2019-Sep-23 17:28S 33°54' E 018°26'0 0.0
2019-Sep-23 16:58S 33°54' E 018°26'0 0.0
2019-Sep-23 16:28S 33°54' E 018°26'0 0.0
2019-Sep-23 15:58S 33°54' E 018°26'0 0.0
2019-Sep-23 15:28S 33°54' E 018°26'0 0.0
2019-Sep-23 14:58S 33°54' E 018°26'0 0.0
2019-Sep-23 14:28S 33°54' E 018°26'0 0.0
2019-Sep-23 13:58S 33°54' E 018°26'0 0.0
2019-Sep-23 13:28S 33°54' E 018°26'0 0.0
2019-Sep-23 12:58S 33°54' E 018°26'0 0.0
2019-Sep-23 12:28S 33°54' E 018°26'0 0.0
2019-Sep-23 11:58S 33°54' E 018°26'0 0.0
2019-Sep-23 11:28S 33°54' E 018°26'0 0.0
2019-Sep-23 10:58S 33°54' E 018°26'0 0.0
2019-Sep-23 10:28S 33°54' E 018°26'0 0.0
2019-Sep-23 09:58S 33°54' E 018°26'0 0.0
2019-Sep-23 09:28S 33°54' E 018°26'0 0.0
2019-Sep-23 08:58S 33°54' E 018°26'0 0.0
2019-Sep-23 08:28S 33°54' E 018°26'0 0.0
2019-Sep-23 07:58S 33°54' E 018°26'0 0.0
2019-Sep-23 07:28S 33°54' E 018°26'0 0.0
2019-Sep-23 06:58S 33°54' E 018°26'0 0.0
2019-Sep-23 06:28S 33°54' E 018°26'0 0.0
2019-Sep-23 05:58S 33°54' E 018°26'0 0.0
2019-Sep-23 05:28S 33°54' E 018°26'0 0.0
2019-Sep-23 04:58S 33°54' E 018°26'0 0.0
2019-Sep-23 04:28S 33°54' E 018°26'0 0.0
2019-Sep-23 03:58S 33°54' E 018°26'0 0.0
2019-Sep-23 03:28S 33°54' E 018°26'0 0.0
2019-Sep-23 02:58S 33°54' E 018°26'0 0.0
2019-Sep-23 01:58S 33°54' E 018°26'0 0.0
2019-Sep-23 01:28S 33°54' E 018°26'0 0.0
2019-Sep-23 00:58S 33°54' E 018°26'0 0.0
2019-Sep-23 00:28S 33°54' E 018°26'0 0.0
2019-Sep-22 23:58S 33°54' E 018°26'0 0.0
2019-Sep-22 23:28S 33°54' E 018°26'0 0.0
2019-Sep-22 22:58S 33°54' E 018°26'0 0.0
2019-Sep-22 22:28S 33°54' E 018°26'0 0.0
2019-Sep-22 21:58S 33°54' E 018°26'0 0.0
2019-Sep-22 21:28S 33°54' E 018°26'0 0.0
2019-Sep-22 21:00S 33°54' E 018°26'2 3.1
2019-Sep-22 20:30S 33°53' E 018°26'4 8.3
2019-Sep-22 20:00S 33°49' E 018°25'4 8.2
2019-Sep-22 19:30S 33°45' E 018°23'4 8.1
2019-Sep-22 18:59S 33°42' E 018°20'5 7.8
2019-Sep-22 18:23S 33°38' E 018°16'  

Dump ship's entire track history